createdAt,value
2019-05-20T00:04:43.944Z,9.81
2019-05-20T00:09:48.815Z,9.74
2019-05-20T00:14:53.590Z,9.65
2019-05-20T00:19:58.372Z,9.56
2019-05-20T00:25:03.107Z,9.60
2019-05-20T00:30:09.227Z,9.53
2019-05-20T00:35:14.005Z,9.50
2019-05-20T00:45:29.262Z,9.21
2019-05-20T00:50:34.648Z,9.12
2019-05-20T00:55:40.471Z,9.05
2019-05-20T01:00:45.413Z,9.10
2019-05-20T01:05:50.090Z,9.29
2019-05-20T01:10:54.800Z,9.36
2019-05-20T01:15:59.389Z,9.24
2019-05-20T01:21:04.442Z,9.22
2019-05-20T01:26:09.722Z,9.22
2019-05-20T01:31:14.292Z,9.09
2019-05-20T01:36:19.369Z,8.84
2019-05-20T01:41:24.368Z,8.65
2019-05-20T01:46:29.268Z,8.53
2019-05-20T01:51:34.479Z,8.35
2019-05-20T01:56:39.408Z,8.35
2019-05-20T02:01:44.049Z,8.39
2019-05-20T02:06:48.543Z,8.13
2019-05-20T02:11:53.273Z,8.13
2019-05-20T02:16:57.905Z,8.22
2019-05-20T02:22:02.694Z,8.16
2019-05-20T02:27:07.418Z,8.01
2019-05-20T02:32:12.083Z,7.68
2019-05-20T02:37:16.751Z,7.74
2019-05-20T02:42:21.456Z,7.83
2019-05-20T02:47:26.419Z,7.71
2019-05-20T02:52:31.062Z,7.28
2019-05-20T02:57:36.344Z,7.32
2019-05-20T03:02:41.285Z,7.44
2019-05-20T03:07:45.996Z,7.54
2019-05-20T03:12:50.714Z,7.39
2019-05-20T03:17:55.313Z,7.32
2019-05-20T03:23:00.210Z,7.35
2019-05-20T03:28:05.764Z,7.18
2019-05-20T03:33:10.478Z,7.31
2019-05-20T03:38:15.495Z,7.38
2019-05-20T03:43:20.082Z,7.43
2019-05-20T03:48:25.294Z,7.47
2019-05-20T03:53:30.169Z,7.46
2019-05-20T03:58:35.283Z,7.59
2019-05-20T04:03:39.816Z,7.70
2019-05-20T04:08:45.961Z,7.69
2019-05-20T04:13:50.674Z,7.36
2019-05-20T04:18:55.908Z,7.53
2019-05-20T04:24:02.076Z,7.58
2019-05-20T04:29:07.719Z,7.53
2019-05-20T04:34:12.781Z,7.59
2019-05-20T04:39:17.740Z,7.66
2019-05-20T04:44:22.446Z,7.60
2019-05-20T04:49:27.145Z,7.50
2019-05-20T04:54:32.385Z,7.29
2019-05-20T04:59:37.119Z,7.58
2019-05-20T05:04:41.801Z,7.58
2019-05-20T05:09:46.538Z,7.51
2019-05-20T05:14:51.452Z,7.57
2019-05-20T05:19:56.493Z,7.92
2019-05-20T05:25:01.133Z,8.09
2019-05-20T05:30:06.713Z,8.29
2019-05-20T05:35:14.334Z,8.54
2019-05-20T05:40:19.498Z,8.88
2019-05-20T05:45:29.920Z,9.39
2019-05-20T05:50:34.935Z,9.81
2019-05-20T05:55:40.898Z,10.17
2019-05-20T06:00:46.231Z,10.41
2019-05-20T06:05:50.928Z,10.61
2019-05-20T06:10:55.696Z,10.76
2019-05-20T06:16:00.875Z,10.87
2019-05-20T06:21:05.670Z,11.03
2019-05-20T06:26:10.969Z,11.27
2019-05-20T06:31:15.778Z,11.28
2019-05-20T06:36:26.846Z,11.32
2019-05-20T06:41:27.619Z,11.45
2019-05-20T06:46:32.978Z,11.63
2019-05-20T06:51:37.678Z,11.63
2019-05-20T06:56:43.418Z,11.76
2019-05-20T07:01:48.312Z,11.76
2019-05-20T07:06:52.944Z,11.99
2019-05-20T07:11:57.794Z,12.05
2019-05-20T07:17:03.377Z,12.18
2019-05-20T07:22:08.069Z,12.26
2019-05-20T07:27:13.003Z,12.25
2019-05-20T07:32:17.933Z,12.42
2019-05-20T07:38:55.003Z,12.42
2019-05-20T07:57:12.328Z,12.45
2019-05-20T08:02:31.866Z,13.04
2019-05-20T08:07:51.206Z,13.22
2019-05-20T08:12:45.038Z,13.58
2019-05-20T08:17:49.795Z,13.99
2019-05-20T08:22:54.973Z,14.01
2019-05-20T08:27:59.863Z,14.79
2019-05-20T08:33:04.838Z,15.07
2019-05-20T08:38:10.431Z,15.20
2019-05-20T08:43:15.537Z,15.50
2019-05-20T08:48:20.399Z,15.50
2019-05-20T08:53:24.980Z,15.34
2019-05-20T08:58:30.200Z,15.91
2019-05-20T09:03:35.503Z,16.05
2019-05-20T09:08:40.209Z,15.79
2019-05-20T09:13:45.515Z,16.11
2019-05-20T09:18:51.013Z,16.33
2019-05-20T09:23:55.544Z,16.39
2019-05-20T09:29:00.392Z,16.55
2019-05-20T09:34:05.419Z,16.94
2019-05-20T09:39:10.432Z,16.95
2019-05-20T09:44:15.143Z,17.35
2019-05-20T09:49:20.263Z,17.85
2019-05-20T09:54:24.843Z,17.40
2019-05-20T09:59:42.884Z,17.83
2019-05-20T10:04:36.785Z,18.14
2019-05-20T10:09:41.481Z,17.83
2019-05-20T10:14:46.178Z,17.99
2019-05-20T10:19:50.954Z,18.17
2019-05-20T10:24:56.139Z,18.20
2019-05-20T10:30:01.554Z,18.28
2019-05-20T10:35:06.604Z,18.40
2019-05-20T10:40:11.563Z,18.38
2019-05-20T10:45:16.630Z,18.29
2019-05-20T10:50:21.555Z,18.06
2019-05-20T10:55:26.198Z,17.45
2019-05-20T11:00:31.003Z,16.85
2019-05-20T11:05:35.572Z,16.55
2019-05-20T11:10:40.215Z,16.48
2019-05-20T11:15:44.813Z,16.55
2019-05-20T11:20:49.930Z,18.36
2019-05-20T11:25:54.703Z,17.53
2019-05-20T11:30:59.964Z,16.81
2019-05-20T11:36:04.754Z,17.82
2019-05-20T11:41:10.726Z,17.59
2019-05-20T11:46:15.453Z,18.71
2019-05-20T11:51:20.155Z,17.41
2019-05-20T11:56:24.849Z,17.17
2019-05-20T12:01:29.606Z,17.09
2019-05-20T12:06:34.584Z,16.73
2019-05-20T12:11:39.406Z,16.79
2019-05-20T12:16:44.184Z,17.15
2019-05-20T12:21:49.018Z,17.08
2019-05-20T12:26:53.669Z,17.40
2019-05-20T12:32:03.214Z,17.43
2019-05-20T12:37:05.687Z,17.28
2019-05-20T12:42:10.627Z,17.71
2019-05-20T12:47:15.850Z,17.39
2019-05-20T12:52:20.527Z,17.76
2019-05-20T12:57:25.300Z,18.24
2019-05-20T13:02:30.075Z,18.82
2019-05-20T13:07:34.713Z,19.04
2019-05-20T13:12:39.497Z,18.75
2019-05-20T13:17:45.331Z,18.47
2019-05-20T13:22:51.103Z,18.32
2019-05-20T13:27:56.273Z,18.39
2019-05-20T13:33:01.490Z,18.23
2019-05-20T13:38:06.052Z,18.02
2019-05-20T13:43:10.909Z,18.19
2019-05-20T13:48:15.594Z,18.31
2019-05-20T13:53:20.463Z,17.88
2019-05-20T13:58:26.064Z,18.44
2019-05-20T14:03:30.738Z,18.11
2019-05-20T14:08:35.449Z,18.36
2019-05-20T14:13:40.325Z,18.12
2019-05-20T14:18:45.513Z,18.29
2019-05-20T14:23:50.881Z,18.11
2019-05-20T14:28:55.625Z,17.76
2019-05-20T14:34:00.378Z,17.85
2019-05-20T14:39:06.687Z,17.84
2019-05-20T14:44:11.467Z,17.67
2019-05-20T14:49:16.083Z,17.45
2019-05-20T14:54:20.705Z,16.88
2019-05-20T14:59:25.289Z,16.68
2019-05-20T15:04:30.814Z,16.52
2019-05-20T15:09:35.548Z,16.45
2019-05-20T15:14:42.575Z,16.17
2019-05-20T15:19:46.918Z,16.12
2019-05-20T15:24:51.900Z,15.77
2019-05-20T15:29:56.560Z,15.49
2019-05-20T15:35:01.577Z,15.40
2019-05-20T15:40:06.714Z,15.45
2019-05-20T15:45:12.834Z,15.55
2019-05-20T15:50:17.559Z,15.23
2019-05-20T15:55:22.279Z,14.85
2019-05-20T16:00:26.850Z,14.84
2019-05-20T16:05:31.647Z,14.85
2019-05-20T16:10:36.403Z,14.93
2019-05-20T16:15:41.059Z,14.99
2019-05-20T16:20:45.713Z,14.79
2019-05-20T16:25:50.451Z,14.69
2019-05-20T16:30:55.228Z,14.55
2019-05-20T16:35:59.935Z,14.26
2019-05-20T16:41:04.768Z,14.07
2019-05-20T16:46:09.655Z,14.08
2019-05-20T16:51:14.391Z,14.09
2019-05-20T16:56:19.039Z,13.78
2019-05-20T17:01:23.874Z,13.94
2019-05-20T17:06:28.580Z,13.93
2019-05-20T17:11:33.349Z,13.83
2019-05-20T17:16:38.223Z,13.68
2019-05-20T17:21:43.050Z,13.76
2019-05-20T17:26:47.798Z,13.84
2019-05-20T17:31:52.404Z,13.43
2019-05-20T17:36:57.129Z,13.35
2019-05-20T17:42:01.987Z,13.43
2019-05-20T17:47:06.794Z,13.27
2019-05-20T17:52:11.618Z,13.12
2019-05-20T17:57:16.265Z,13.21
2019-05-20T18:02:20.930Z,12.89
2019-05-20T18:07:25.760Z,12.91
2019-05-20T18:12:30.363Z,12.79
2019-05-20T18:17:35.294Z,12.66
2019-05-20T18:22:40.051Z,12.53
2019-05-20T18:27:44.768Z,12.60
2019-05-20T18:32:49.583Z,12.64
2019-05-20T18:37:54.350Z,12.67
2019-05-20T18:42:59.042Z,12.40
2019-05-20T18:48:03.657Z,12.43
2019-05-20T18:53:08.423Z,12.39
2019-05-20T18:58:13.132Z,12.33
2019-05-20T19:03:17.789Z,12.20
2019-05-20T19:08:25.551Z,12.12
2019-05-20T19:13:29.228Z,11.93
2019-05-20T19:18:33.898Z,11.69
2019-05-20T19:23:38.525Z,11.60
2019-05-20T19:28:43.351Z,11.34
2019-05-20T19:33:48.109Z,11.21
2019-05-20T19:38:52.851Z,11.21
2019-05-20T19:43:57.702Z,11.26
2019-05-20T19:49:02.453Z,11.05
2019-05-20T19:54:07.331Z,10.87
2019-05-20T19:59:12.178Z,10.71
2019-05-20T20:04:17.610Z,10.66
2019-05-20T20:09:22.279Z,10.59
2019-05-20T20:14:26.960Z,10.58
2019-05-20T20:19:31.766Z,10.40
2019-05-20T20:24:36.615Z,10.36
2019-05-20T20:29:42.119Z,10.26
2019-05-20T20:34:46.922Z,10.20
2019-05-20T20:39:51.652Z,10.13
2019-05-20T20:44:56.384Z,10.13
2019-05-20T20:50:01.361Z,9.97
2019-05-20T20:55:06.689Z,9.96
2019-05-20T21:00:11.987Z,10.13
2019-05-20T21:05:17.038Z,9.92
2019-05-20T21:10:21.759Z,9.86
2019-05-20T21:15:26.603Z,9.81
2019-05-20T21:20:31.434Z,9.70
2019-05-20T21:25:36.093Z,9.34
2019-05-20T21:30:41.970Z,9.18
2019-05-20T21:35:46.700Z,9.18
2019-05-20T21:40:51.309Z,9.25
2019-05-20T21:45:55.968Z,9.26
2019-05-20T21:51:00.602Z,9.28
2019-05-20T21:56:05.220Z,9.31
2019-05-20T22:01:09.966Z,9.38
2019-05-20T22:06:14.509Z,8.92
2019-05-20T22:11:19.279Z,8.67
2019-05-20T22:16:23.919Z,8.59
2019-05-20T22:21:33.395Z,8.54
2019-05-20T22:26:38.225Z,8.50
2019-05-20T22:31:42.879Z,8.49
2019-05-20T22:36:47.475Z,8.41
2019-05-20T22:41:52.092Z,8.27
2019-05-20T22:46:56.802Z,8.49
2019-05-20T22:52:01.511Z,8.50
2019-05-20T22:57:06.159Z,8.51
2019-05-20T23:02:10.714Z,8.59
2019-05-20T23:07:15.346Z,8.42
2019-05-20T23:12:19.978Z,8.38
2019-05-20T23:17:24.618Z,8.31
2019-05-20T23:22:29.417Z,8.17
2019-05-20T23:27:34.119Z,8.11
2019-05-20T23:32:38.960Z,8.24
2019-05-20T23:37:43.695Z,8.39
2019-05-20T23:42:48.332Z,8.27
2019-05-20T23:47:53.050Z,8.03
2019-05-20T23:52:57.755Z,7.79
